PHTO/ITO METAR and TAF weather

Enter ICAO airport designator
Station Type Date Time Source
PHTO METAR 2020/04/01 23:53 UTC NOAA

PHTO 012353Z 05010KT 10SM CLR 27/20 A2992 RMK AO2 SLP131 T02720200 10283 20217 56028


Station Type Date Time Source
PHTO Decoded METAR 2020/04/01 23:53 UTC NOAA

HILO INTERNATIONAL AIRPORT, HI, United States (PHTO) 19-43N 155-03W 12M
Apr 01, 2020 - 07:53 PM EDT / 2020.04.01 2353 UTC
Wind: from the NE (050 degrees) at 12 MPH (10 KT):0
Visibility: 10 mile(s):0
Sky conditions: clear
Temperature: 81.0 F (27.2 C)
Dew Point: 68.0 F (20.0 C)
Relative Humidity: 64%
Pressure (altimeter): 29.92 in. Hg (1013 hPa)
Pressure tendency: 0.08 inches (2.8 hPa) lower than three hours ago
ob: PHTO 012353Z 05010KT 10SM CLR 27/20 A2992 RMK AO2 SLP131 T02720200 10283 20217 56028
cycle: 0

Station Type Date Time Source
PHTO TAF 2020/04/01 18:36 UTC NOAA

TAF PHTO 011735Z 0118/0218 22004KT P6SM VCSH SCT025 BKN120
FM012000 08009KT P6SM VCSH SCT035 BKN060
FM020600 23005KT P6SM FEW025 SCT040

Example: see airport list